Main page
METAR-TAF:

METAR-TAF

Airports :

Cairo, Egypt

Cairo International Airport

latitude: 30-08N, longitude: 031-24E, elevation: 64 m

Current weather observation

The report was made 37 minutes ago, at 20:00 UTC
Wind 10 kt from the North/Northwest
Temperature 28°C
Humidity 62%
Pressure 1008 hPa
Visibility 10 km or more
no clouds below 1500 m and no cumulonimbus

METAR: HECA 202000Z 34010KT CAVOK 28/20 Q1008 NOSIG

Time: 22:37 (20:37 UTC)

Forecast

The report was made 3 hours and 37 minutes ago, at 17:00 UTC
Forecast valid from 20 at 18 UTC to 21 at 24 UTC
Wind 10 kt from the North/Northwest
Visibility 10 km or more
no clouds below 1500 m and no cumulonimbus
Temporary
from 21 at 00 UTC to 21 at 06 UTC
Wind 3 kt from variable directions
Visibility: 6000 m
Temporary
from 21 at 08 UTC to 21 at 12 UTC
Visibility 10 km or more
Scattered clouds at a height of 2500 ft

TAF: HECA 201700Z 2018/2124 33010KT CAVOK TEMPO 2100/2106 VRB03KT 6000 NSC TEMPO 2108/2112 9999 SCT025

Weather observations and forecasts of more than 4000 airports (METAR and TAF reports).

The available stations are represented by yellow and red dots on the map.

Hover mouse over dot to see the name of the station.

Then click to see weather observations and forecasts.

To change the map : click on the green buttons with a black cross to zoom in, on the green button with a dash to zoom out, or on the green arrows for adjacent maps.


METAR-TAF: